sensor_id;sensor_type;location;lat;lon;timestamp;pressure;altitude;pressure_sealevel;temperature;humidity
23677;BME280;31493;49.058;12.190;2023-11-19T00:00:07;96222.84;;;2.89;100.00
23677;BME280;31493;49.058;12.190;2023-11-19T00:02:39;96221.28;;;3.07;100.00
23677;BME280;31493;49.058;12.190;2023-11-19T00:05:07;96208.78;;;2.99;100.00
23677;BME280;31493;49.058;12.190;2023-11-19T00:07:35;96197.44;;;3.05;100.00
23677;BME280;31493;49.058;12.190;2023-11-19T00:10:03;96183.78;;;3.04;100.00
23677;BME280;31493;49.058;12.190;2023-11-19T00:12:32;96176.31;;;2.78;100.00
23677;BME280;31493;49.058;12.190;2023-11-19T00:14:59;96184.25;;;2.72;100.00
23677;BME280;31493;49.058;12.190;2023-11-19T00:17:28;96179.81;;;2.97;100.00
23677;BME280;31493;49.058;12.190;2023-11-19T00:19:56;96172.38;;;2.91;100.00
23677;BME280;31493;49.058;12.190;2023-11-19T00:22:24;96172.25;;;2.94;100.00
23677;BME280;31493;49.058;12.190;2023-11-19T00:24:51;96147.06;;;2.84;100.00
23677;BME280;31493;49.058;12.190;2023-11-19T00:27:18;96157.22;;;2.87;100.00
23677;BME280;31493;49.058;12.190;2023-11-19T00:29:46;96158.06;;;3.08;100.00
23677;BME280;31493;49.058;12.190;2023-11-19T00:32:13;96161.44;;;3.08;100.00
23677;BME280;31493;49.058;12.190;2023-11-19T00:34:43;96146.16;;;2.85;100.00
23677;BME280;31493;49.058;12.190;2023-11-19T00:37:11;96144.09;;;2.94;100.00
23677;BME280;31493;49.058;12.190;2023-11-19T00:39:38;96144.94;;;3.15;100.00
23677;BME280;31493;49.058;12.190;2023-11-19T00:42:05;96147.41;;;3.17;100.00
23677;BME280;31493;49.058;12.190;2023-11-19T00:44:32;96138.25;;;2.91;100.00
23677;BME280;31493;49.058;12.190;2023-11-19T00:46:59;96141.28;;;3.00;100.00
23677;BME280;31493;49.058;12.190;2023-11-19T00:49:27;96133.69;;;2.97;100.00
23677;BME280;31493;49.058;12.190;2023-11-19T00:51:54;96136.50;;;2.91;100.00
23677;BME280;31493;49.058;12.190;2023-11-19T00:54:22;96133.88;;;2.93;100.00
23677;BME280;31493;49.058;12.190;2023-11-19T00:56:51;96136.41;;;2.94;100.00
23677;BME280;31493;49.058;12.190;2023-11-19T00:59:18;96116.97;;;2.68;100.00
23677;BME280;31493;49.058;12.190;2023-11-19T01:01:45;96127.16;;;2.70;100.00
23677;BME280;31493;49.058;12.190;2023-11-19T01:04:13;96127.09;;;2.92;100.00
23677;BME280;31493;49.058;12.190;2023-11-19T01:06:40;96119.13;;;2.99;100.00
23677;BME280;31493;49.058;12.190;2023-11-19T01:09:08;96123.78;;;3.10;100.00
23677;BME280;31493;49.058;12.190;2023-11-19T01:11:37;96118.16;;;2.82;100.00
23677;BME280;31493;49.058;12.190;2023-11-19T01:14:05;96115.09;;;3.14;100.00
23677;BME280;31493;49.058;12.190;2023-11-19T01:16:32;96119.16;;;2.98;100.00
23677;BME280;31493;49.058;12.190;2023-11-19T01:18:59;96113.34;;;2.94;100.00
23677;BME280;31493;49.058;12.190;2023-11-19T01:21:30;96116.34;;;3.04;100.00
23677;BME280;31493;49.058;12.190;2023-11-19T01:23:57;96108.91;;;2.98;100.00
23677;BME280;31493;49.058;12.190;2023-11-19T01:26:25;96098.94;;;3.12;100.00
23677;BME280;31493;49.058;12.190;2023-11-19T01:28:53;96086.69;;;2.98;100.00
23677;BME280;31493;49.058;12.190;2023-11-19T01:31:20;96096.97;;;3.19;100.00
23677;BME280;31493;49.058;12.190;2023-11-19T01:33:47;96090.75;;;3.24;100.00
23677;BME280;31493;49.058;12.190;2023-11-19T01:36:15;96102.03;;;3.00;100.00
23677;BME280;31493;49.058;12.190;2023-11-19T01:38:42;96089.41;;;2.95;100.00
23677;BME280;31493;49.058;12.190;2023-11-19T01:41:09;96083.63;;;3.11;100.00
23677;BME280;31493;49.058;12.190;2023-11-19T01:43:37;96079.84;;;2.99;100.00
23677;BME280;31493;49.058;12.190;2023-11-19T01:46:06;96077.09;;;3.03;100.00
23677;BME280;31493;49.058;12.190;2023-11-19T01:48:37;96082.78;;;3.10;100.00
23677;BME280;31493;49.058;12.190;2023-11-19T01:51:06;96081.31;;;2.84;100.00
23677;BME280;31493;49.058;12.190;2023-11-19T01:53:36;96070.19;;;3.06;100.00
23677;BME280;31493;49.058;12.190;2023-11-19T01:56:05;96061.22;;;2.95;100.00
23677;BME280;31493;49.058;12.190;2023-11-19T01:58:35;96055.31;;;2.73;100.00
23677;BME280;31493;49.058;12.190;2023-11-19T02:01:02;96070.50;;;2.98;100.00
23677;BME280;31493;49.058;12.190;2023-11-19T02:03:32;96075.31;;;3.06;100.00
23677;BME280;31493;49.058;12.190;2023-11-19T02:05:59;96073.50;;;3.08;100.00
23677;BME280;31493;49.058;12.190;2023-11-19T02:08:26;96068.31;;;3.09;100.00
23677;BME280;31493;49.058;12.190;2023-11-19T02:10:53;96057.31;;;2.87;100.00
23677;BME280;31493;49.058;12.190;2023-11-19T02:13:22;96065.06;;;3.06;100.00
23677;BME280;31493;49.058;12.190;2023-11-19T02:15:50;96050.00;;;3.18;100.00
23677;BME280;31493;49.058;12.190;2023-11-19T02:18:19;96046.16;;;3.08;100.00
23677;BME280;31493;49.058;12.190;2023-11-19T02:20:47;96040.97;;;3.10;100.00
23677;BME280;31493;49.058;12.190;2023-11-19T02:23:15;96037.94;;;2.81;100.00
23677;BME280;31493;49.058;12.190;2023-11-19T02:25:47;96043.44;;;3.11;100.00
23677;BME280;31493;49.058;12.190;2023-11-19T02:28:23;96045.19;;;3.11;100.00
23677;BME280;31493;49.058;12.190;2023-11-19T02:30:50;96027.13;;;3.14;100.00
23677;BME280;31493;49.058;12.190;2023-11-19T02:33:17;96022.09;;;2.71;100.00
23677;BME280;31493;49.058;12.190;2023-11-19T02:35:44;96027.41;;;3.08;100.00
23677;BME280;31493;49.058;12.190;2023-11-19T02:38:11;96013.84;;;3.06;100.00
23677;BME280;31493;49.058;12.190;2023-11-19T02:40:40;95993.41;;;3.23;100.00
23677;BME280;31493;49.058;12.190;2023-11-19T02:43:07;95969.75;;;2.97;100.00
23677;BME280;31493;49.058;12.190;2023-11-19T02:45:35;95968.31;;;2.71;100.00
23677;BME280;31493;49.058;12.190;2023-11-19T02:48:03;95973.13;;;2.99;100.00
23677;BME280;31493;49.058;12.190;2023-11-19T02:50:32;95984.19;;;2.80;100.00
23677;BME280;31493;49.058;12.190;2023-11-19T02:52:59;95952.25;;;2.68;100.00
23677;BME280;31493;49.058;12.190;2023-11-19T02:55:27;95975.41;;;2.85;100.00
23677;BME280;31493;49.058;12.190;2023-11-19T02:57:56;95972.84;;;2.85;100.00
23677;BME280;31493;49.058;12.190;2023-11-19T03:00:25;95982.22;;;2.66;100.00
23677;BME280;31493;49.058;12.190;2023-11-19T03:03:01;95988.09;;;2.68;100.00
23677;BME280;31493;49.058;12.190;2023-11-19T03:05:43;95999.78;;;2.75;100.00
23677;BME280;31493;49.058;12.190;2023-11-19T03:08:10;95983.69;;;2.71;100.00
23677;BME280;31493;49.058;12.190;2023-11-19T03:10:38;96000.09;;;2.88;100.00
23677;BME280;31493;49.058;12.190;2023-11-19T03:13:05;95988.53;;;2.98;100.00
23677;BME280;31493;49.058;12.190;2023-11-19T03:15:37;95981.22;;;3.09;100.00
23677;BME280;31493;49.058;12.190;2023-11-19T03:18:06;95985.69;;;3.04;100.00
23677;BME280;31493;49.058;12.190;2023-11-19T03:20:33;95987.69;;;2.97;100.00
23677;BME280;31493;49.058;12.190;2023-11-19T03:23:00;95982.38;;;3.02;100.00
23677;BME280;31493;49.058;12.190;2023-11-19T03:25:27;95973.00;;;2.82;100.00
23677;BME280;31493;49.058;12.190;2023-11-19T03:27:59;95981.56;;;3.01;100.00
23677;BME280;31493;49.058;12.190;2023-11-19T03:30:26;95975.00;;;2.75;100.00
23677;BME280;31493;49.058;12.190;2023-11-19T03:32:54;95972.22;;;3.00;100.00
23677;BME280;31493;49.058;12.190;2023-11-19T03:35:22;95980.50;;;2.46;100.00
23677;BME280;31493;49.058;12.190;2023-11-19T03:37:50;95988.75;;;2.73;100.00
23677;BME280;31493;49.058;12.190;2023-11-19T03:40:18;95953.72;;;2.94;100.00
23677;BME280;31493;49.058;12.190;2023-11-19T03:42:45;95963.31;;;2.89;100.00
23677;BME280;31493;49.058;12.190;2023-11-19T03:45:13;95967.34;;;2.94;100.00
23677;BME280;31493;49.058;12.190;2023-11-19T03:47:40;95977.84;;;2.88;100.00
23677;BME280;31493;49.058;12.190;2023-11-19T03:50:07;95966.53;;;2.73;100.00
23677;BME280;31493;49.058;12.190;2023-11-19T03:52:36;95960.94;;;2.84;100.00
23677;BME280;31493;49.058;12.190;2023-11-19T03:55:10;95959.94;;;2.47;100.00
23677;BME280;31493;49.058;12.190;2023-11-19T03:57:38;95964.41;;;2.83;100.00
23677;BME280;31493;49.058;12.190;2023-11-19T04:00:06;95962.38;;;2.71;100.00
23677;BME280;31493;49.058;12.190;2023-11-19T04:02:36;95959.63;;;2.75;100.00
23677;BME280;31493;49.058;12.190;2023-11-19T04:05:03;95962.03;;;2.78;100.00
23677;BME280;31493;49.058;12.190;2023-11-19T04:07:31;95958.19;;;2.89;100.00
23677;BME280;31493;49.058;12.190;2023-11-19T04:10:00;95958.22;;;2.68;100.00
23677;BME280;31493;49.058;12.190;2023-11-19T04:12:27;95948.69;;;2.52;100.00
23677;BME280;31493;49.058;12.190;2023-11-19T04:14:54;95952.44;;;2.84;100.00
23677;BME280;31493;49.058;12.190;2023-11-19T04:17:21;95959.88;;;2.69;100.00
23677;BME280;31493;49.058;12.190;2023-11-19T04:19:49;95948.47;;;2.76;100.00
23677;BME280;31493;49.058;12.190;2023-11-19T04:22:16;95947.41;;;2.82;100.00
23677;BME280;31493;49.058;12.190;2023-11-19T04:24:43;95926.59;;;2.69;100.00
23677;BME280;31493;49.058;12.190;2023-11-19T04:27:13;95926.13;;;2.80;100.00
23677;BME280;31493;49.058;12.190;2023-11-19T04:29:40;95924.56;;;2.57;100.00
23677;BME280;31493;49.058;12.190;2023-11-19T04:32:07;95940.31;;;2.68;100.00
23677;BME280;31493;49.058;12.190;2023-11-19T04:34:34;95924.63;;;2.76;100.00
23677;BME280;31493;49.058;12.190;2023-11-19T04:37:03;95918.28;;;2.23;100.00
23677;BME280;31493;49.058;12.190;2023-11-19T04:39:31;95906.66;;;2.37;100.00
23677;BME280;31493;49.058;12.190;2023-11-19T04:41:58;95912.41;;;2.42;100.00
23677;BME280;31493;49.058;12.190;2023-11-19T04:44:26;95904.03;;;2.59;100.00
23677;BME280;31493;49.058;12.190;2023-11-19T04:46:55;95912.59;;;2.58;100.00
23677;BME280;31493;49.058;12.190;2023-11-19T04:49:22;95924.09;;;2.68;100.00
23677;BME280;31493;49.058;12.190;2023-11-19T04:51:49;95899.91;;;2.55;100.00
23677;BME280;31493;49.058;12.190;2023-11-19T04:54:16;95886.19;;;2.16;100.00
23677;BME280;31493;49.058;12.190;2023-11-19T04:56:45;95866.97;;;2.47;100.00
23677;BME280;31493;49.058;12.190;2023-11-19T04:59:12;95836.19;;;2.48;100.00
23677;BME280;31493;49.058;12.190;2023-11-19T05:01:40;95840.34;;;2.12;100.00
23677;BME280;31493;49.058;12.190;2023-11-19T05:04:07;95809.00;;;2.27;100.00
23677;BME280;31493;49.058;12.190;2023-11-19T05:06:34;95806.81;;;2.38;100.00
23677;BME280;31493;49.058;12.190;2023-11-19T05:09:02;95859.94;;;2.52;100.00
23677;BME280;31493;49.058;12.190;2023-11-19T05:11:30;95870.50;;;2.44;100.00
23677;BME280;31493;49.058;12.190;2023-11-19T05:13:58;95918.44;;;2.20;100.00
23677;BME280;31493;49.058;12.190;2023-11-19T05:16:25;95903.50;;;2.30;100.00
23677;BME280;31493;49.058;12.190;2023-11-19T05:18:54;95893.38;;;2.68;100.00
23677;BME280;31493;49.058;12.190;2023-11-19T05:21:21;95852.91;;;2.57;100.00
23677;BME280;31493;49.058;12.190;2023-11-19T05:23:51;95896.88;;;2.26;100.00
23677;BME280;31493;49.058;12.190;2023-11-19T05:26:18;95910.84;;;2.78;100.00
23677;BME280;31493;49.058;12.190;2023-11-19T05:28:46;95906.81;;;2.73;100.00
23677;BME280;31493;49.058;12.190;2023-11-19T05:31:14;95897.31;;;2.36;100.00
23677;BME280;31493;49.058;12.190;2023-11-19T05:33:41;95906.63;;;2.77;100.00
23677;BME280;31493;49.058;12.190;2023-11-19T05:36:12;95920.34;;;2.56;100.00
23677;BME280;31493;49.058;12.190;2023-11-19T05:38:40;95916.78;;;2.40;100.00
23677;BME280;31493;49.058;12.190;2023-11-19T05:41:07;95904.50;;;2.67;100.00
23677;BME280;31493;49.058;12.190;2023-11-19T05:43:34;95911.94;;;2.73;100.00
23677;BME280;31493;49.058;12.190;2023-11-19T05:46:01;95930.56;;;2.36;100.00
23677;BME280;31493;49.058;12.190;2023-11-19T05:48:28;95926.00;;;2.83;100.00
23677;BME280;31493;49.058;12.190;2023-11-19T05:50:55;95903.50;;;2.71;100.00
23677;BME280;31493;49.058;12.190;2023-11-19T05:53:24;95906.13;;;2.69;100.00
23677;BME280;31493;49.058;12.190;2023-11-19T05:55:51;95915.16;;;2.97;100.00
23677;BME280;31493;49.058;12.190;2023-11-19T05:58:23;95910.06;;;2.76;100.00
23677;BME280;31493;49.058;12.190;2023-11-19T06:00:51;95898.09;;;2.77;100.00
23677;BME280;31493;49.058;12.190;2023-11-19T06:03:18;95887.69;;;2.61;100.00
23677;BME280;31493;49.058;12.190;2023-11-19T06:05:47;95891.72;;;2.67;100.00
23677;BME280;31493;49.058;12.190;2023-11-19T06:08:14;95901.50;;;2.96;100.00
23677;BME280;31493;49.058;12.190;2023-11-19T06:10:44;95888.75;;;2.76;100.00
23677;BME280;31493;49.058;12.190;2023-11-19T06:13:12;95885.94;;;3.01;100.00
23677;BME280;31493;49.058;12.190;2023-11-19T06:15:41;95879.22;;;2.98;100.00
23677;BME280;31493;49.058;12.190;2023-11-19T06:18:08;95892.56;;;3.05;100.00
23677;BME280;31493;49.058;12.190;2023-11-19T06:20:37;95899.00;;;2.76;100.00
23677;BME280;31493;49.058;12.190;2023-11-19T06:23:04;95883.19;;;2.87;100.00
23677;BME280;31493;49.058;12.190;2023-11-19T06:25:31;95896.16;;;2.63;100.00
23677;BME280;31493;49.058;12.190;2023-11-19T06:28:00;95876.88;;;2.94;100.00
23677;BME280;31493;49.058;12.190;2023-11-19T06:30:27;95889.97;;;2.67;100.00
23677;BME280;31493;49.058;12.190;2023-11-19T06:32:55;95880.13;;;3.16;100.00
23677;BME280;31493;49.058;12.190;2023-11-19T06:35:22;95878.94;;;3.23;100.00
23677;BME280;31493;49.058;12.190;2023-11-19T06:37:49;95889.88;;;2.89;100.00
23677;BME280;31493;49.058;12.190;2023-11-19T06:40:16;95897.69;;;2.86;100.00
23677;BME280;31493;49.058;12.190;2023-11-19T06:42:43;95894.56;;;2.80;100.00
23677;BME280;31493;49.058;12.190;2023-11-19T06:45:12;95891.84;;;2.64;100.00
23677;BME280;31493;49.058;12.190;2023-11-19T06:47:39;95888.63;;;2.98;100.00
23677;BME280;31493;49.058;12.190;2023-11-19T06:50:07;95896.16;;;2.63;100.00
23677;BME280;31493;49.058;12.190;2023-11-19T06:52:35;95890.22;;;2.82;100.00
23677;BME280;31493;49.058;12.190;2023-11-19T06:55:03;95865.28;;;2.85;100.00
23677;BME280;31493;49.058;12.190;2023-11-19T06:57:30;95894.72;;;2.76;100.00
23677;BME280;31493;49.058;12.190;2023-11-19T06:59:58;95861.22;;;2.62;100.00
23677;BME280;31493;49.058;12.190;2023-11-19T07:02:26;95873.31;;;2.77;100.00
23677;BME280;31493;49.058;12.190;2023-11-19T07:04:53;95867.94;;;3.02;100.00
23677;BME280;31493;49.058;12.190;2023-11-19T07:07:21;95864.66;;;2.61;100.00
23677;BME280;31493;49.058;12.190;2023-11-19T07:09:48;95870.00;;;2.75;100.00
23677;BME280;31493;49.058;12.190;2023-11-19T07:12:15;95866.56;;;2.95;100.00
23677;BME280;31493;49.058;12.190;2023-11-19T07:14:42;95868.28;;;3.14;100.00
23677;BME280;31493;49.058;12.190;2023-11-19T07:17:09;95870.56;;;2.82;100.00
23677;BME280;31493;49.058;12.190;2023-11-19T07:19:38;95875.69;;;3.01;100.00
23677;BME280;31493;49.058;12.190;2023-11-19T07:22:06;95873.88;;;2.84;100.00
23677;BME280;31493;49.058;12.190;2023-11-19T07:24:33;95886.75;;;2.64;100.00
23677;BME280;31493;49.058;12.190;2023-11-19T07:27:00;95885.66;;;2.88;100.00
23677;BME280;31493;49.058;12.190;2023-11-19T07:29:29;95886.69;;;3.03;100.00
23677;BME280;31493;49.058;12.190;2023-11-19T07:31:57;95885.78;;;2.85;100.00
23677;BME280;31493;49.058;12.190;2023-11-19T07:34:24;95897.78;;;3.22;100.00
23677;BME280;31493;49.058;12.190;2023-11-19T07:36:53;95897.75;;;3.41;100.00
23677;BME280;31493;49.058;12.190;2023-11-19T07:39:20;95887.13;;;3.31;100.00
23677;BME280;31493;49.058;12.190;2023-11-19T07:41:48;95890.22;;;3.38;100.00
23677;BME280;31493;49.058;12.190;2023-11-19T07:44:15;95889.41;;;3.38;100.00
23677;BME280;31493;49.058;12.190;2023-11-19T07:46:42;95892.16;;;3.33;100.00
23677;BME280;31493;49.058;12.190;2023-11-19T07:49:10;95895.47;;;3.16;100.00
23677;BME280;31493;49.058;12.190;2023-11-19T07:51:37;95894.66;;;3.35;100.00
23677;BME280;31493;49.058;12.190;2023-11-19T07:54:06;95897.38;;;3.13;100.00
23677;BME280;31493;49.058;12.190;2023-11-19T07:56:33;95889.13;;;3.06;100.00
23677;BME280;31493;49.058;12.190;2023-11-19T07:59:01;95890.44;;;3.15;100.00
23677;BME280;31493;49.058;12.190;2023-11-19T08:01:28;95894.25;;;3.06;100.00
23677;BME280;31493;49.058;12.190;2023-11-19T08:03:55;95878.94;;;3.04;100.00
23677;BME280;31493;49.058;12.190;2023-11-19T08:06:23;95898.00;;;3.54;100.00
23677;BME280;31493;49.058;12.190;2023-11-19T08:08:49;95867.13;;;3.57;100.00
23677;BME280;31493;49.058;12.190;2023-11-19T08:11:17;95896.03;;;3.61;100.00
23677;BME280;31493;49.058;12.190;2023-11-19T08:13:47;95884.28;;;3.38;100.00
23677;BME280;31493;49.058;12.190;2023-11-19T08:16:14;95873.38;;;3.51;100.00
23677;BME280;31493;49.058;12.190;2023-11-19T08:18:43;95886.72;;;3.58;100.00
23677;BME280;31493;49.058;12.190;2023-11-19T08:21:10;95886.81;;;3.56;100.00
23677;BME280;31493;49.058;12.190;2023-11-19T08:23:37;95878.38;;;3.54;100.00
23677;BME280;31493;49.058;12.190;2023-11-19T08:26:05;95884.53;;;3.50;100.00
23677;BME280;31493;49.058;12.190;2023-11-19T08:28:34;95881.25;;;3.83;100.00
23677;BME280;31493;49.058;12.190;2023-11-19T08:31:00;95882.22;;;3.63;100.00
23677;BME280;31493;49.058;12.190;2023-11-19T08:33:27;95869.16;;;3.50;100.00
23677;BME280;31493;49.058;12.190;2023-11-19T08:35:55;95867.97;;;3.75;100.00
23677;BME280;31493;49.058;12.190;2023-11-19T08:38:22;95868.44;;;3.83;100.00
23677;BME280;31493;49.058;12.190;2023-11-19T08:40:49;95886.50;;;3.99;100.00
23677;BME280;31493;49.058;12.190;2023-11-19T08:43:16;95886.31;;;4.02;100.00
23677;BME280;31493;49.058;12.190;2023-11-19T08:45:44;95889.13;;;4.15;100.00
23677;BME280;31493;49.058;12.190;2023-11-19T08:48:11;95887.16;;;4.02;100.00
23677;BME280;31493;49.058;12.190;2023-11-19T08:50:38;95881.94;;;3.87;100.00
23677;BME280;31493;49.058;12.190;2023-11-19T08:53:05;95881.16;;;3.84;100.00
23677;BME280;31493;49.058;12.190;2023-11-19T08:55:32;95887.91;;;3.87;100.00
23677;BME280;31493;49.058;12.190;2023-11-19T08:57:59;95881.63;;;4.27;100.00
23677;BME280;31493;49.058;12.190;2023-11-19T09:00:26;95887.38;;;4.50;100.00
23677;BME280;31493;49.058;12.190;2023-11-19T09:02:55;95880.56;;;4.49;100.00
23677;BME280;31493;49.058;12.190;2023-11-19T09:05:23;95887.31;;;4.17;100.00
23677;BME280;31493;49.058;12.190;2023-11-19T09:07:51;95892.06;;;4.24;100.00
23677;BME280;31493;49.058;12.190;2023-11-19T09:10:18;95890.03;;;4.31;100.00
23677;BME280;31493;49.058;12.190;2023-11-19T09:12:45;95891.38;;;4.38;100.00
23677;BME280;31493;49.058;12.190;2023-11-19T09:15:12;95883.59;;;4.39;100.00
23677;BME280;31493;49.058;12.190;2023-11-19T09:17:39;95873.56;;;4.35;100.00
23677;BME280;31493;49.058;12.190;2023-11-19T09:20:09;95874.25;;;4.21;100.00
23677;BME280;31493;49.058;12.190;2023-11-19T09:22:38;95885.19;;;4.42;100.00
23677;BME280;31493;49.058;12.190;2023-11-19T09:25:05;95872.56;;;4.55;100.00
23677;BME280;31493;49.058;12.190;2023-11-19T09:27:33;95889.63;;;4.38;100.00
23677;BME280;31493;49.058;12.190;2023-11-19T09:30:00;95885.28;;;4.41;100.00
23677;BME280;31493;49.058;12.190;2023-11-19T09:32:27;95882.09;;;4.18;100.00
23677;BME280;31493;49.058;12.190;2023-11-19T09:34:54;95883.53;;;4.41;100.00
23677;BME280;31493;49.058;12.190;2023-11-19T09:37:22;95889.63;;;4.56;100.00
23677;BME280;31493;49.058;12.190;2023-11-19T09:39:49;95898.41;;;4.34;100.00
23677;BME280;31493;49.058;12.190;2023-11-19T09:42:16;95875.25;;;4.69;100.00
23677;BME280;31493;49.058;12.190;2023-11-19T09:44:43;95887.69;;;5.10;100.00
23677;BME280;31493;49.058;12.190;2023-11-19T09:47:11;95881.34;;;5.33;100.00
23677;BME280;31493;49.058;12.190;2023-11-19T09:49:40;95861.00;;;5.44;100.00
23677;BME280;31493;49.058;12.190;2023-11-19T09:52:07;95878.34;;;5.40;100.00
23677;BME280;31493;49.058;12.190;2023-11-19T09:54:36;95867.88;;;5.43;100.00
23677;BME280;31493;49.058;12.190;2023-11-19T09:57:04;95869.81;;;5.40;100.00
23677;BME280;31493;49.058;12.190;2023-11-19T09:59:32;95886.69;;;5.44;100.00
23677;BME280;31493;49.058;12.190;2023-11-19T10:01:59;95878.94;;;5.45;100.00
23677;BME280;31493;49.058;12.190;2023-11-19T10:04:29;95876.09;;;5.66;100.00
23677;BME280;31493;49.058;12.190;2023-11-19T10:06:57;95860.91;;;5.61;100.00
23677;BME280;31493;49.058;12.190;2023-11-19T10:09:24;95881.91;;;5.69;100.00
23677;BME280;31493;49.058;12.190;2023-11-19T10:11:52;95881.03;;;5.85;100.00
23677;BME280;31493;49.058;12.190;2023-11-19T10:14:23;95887.28;;;6.11;100.00
23677;BME280;31493;49.058;12.190;2023-11-19T10:16:54;95878.72;;;6.40;100.00
23677;BME280;31493;49.058;12.190;2023-11-19T10:19:22;95875.28;;;6.25;100.00
23677;BME280;31493;49.058;12.190;2023-11-19T10:21:49;95878.19;;;6.64;100.00
23677;BME280;31493;49.058;12.190;2023-11-19T10:24:16;95878.53;;;6.43;100.00
23677;BME280;31493;49.058;12.190;2023-11-19T10:26:43;95891.81;;;6.66;100.00
23677;BME280;31493;49.058;12.190;2023-11-19T10:29:13;95882.25;;;6.68;100.00
23677;BME280;31493;49.058;12.190;2023-11-19T10:31:43;95865.31;;;6.64;100.00
23677;BME280;31493;49.058;12.190;2023-11-19T10:34:24;95873.88;;;6.64;100.00
23677;BME280;31493;49.058;12.190;2023-11-19T10:36:52;95871.84;;;6.55;100.00
23677;BME280;31493;49.058;12.190;2023-11-19T10:39:19;95867.16;;;6.62;100.00
23677;BME280;31493;49.058;12.190;2023-11-19T10:41:46;95858.50;;;6.77;100.00
23677;BME280;31493;49.058;12.190;2023-11-19T10:47:08;95859.78;;;6.56;100.00
23677;BME280;31493;49.058;12.190;2023-11-19T10:49:36;95855.94;;;6.63;100.00
23677;BME280;31493;49.058;12.190;2023-11-19T10:52:05;95861.06;;;6.63;100.00
23677;BME280;31493;49.058;12.190;2023-11-19T10:54:34;95863.09;;;6.72;100.00
23677;BME280;31493;49.058;12.190;2023-11-19T10:57:02;95850.41;;;6.83;100.00
23677;BME280;31493;49.058;12.190;2023-11-19T10:59:30;95850.50;;;6.81;100.00
23677;BME280;31493;49.058;12.190;2023-11-19T11:02:01;95852.97;;;7.12;100.00
23677;BME280;31493;49.058;12.190;2023-11-19T11:04:37;95855.72;;;7.23;100.00
23677;BME280;31493;49.058;12.190;2023-11-19T11:07:08;95859.34;;;7.33;100.00
23677;BME280;31493;49.058;12.190;2023-11-19T11:09:36;95853.03;;;7.39;100.00
23677;BME280;31493;49.058;12.190;2023-11-19T11:12:05;95852.63;;;7.45;100.00
23677;BME280;31493;49.058;12.190;2023-11-19T11:14:34;95853.34;;;7.47;100.00
23677;BME280;31493;49.058;12.190;2023-11-19T11:17:08;95861.41;;;7.42;100.00
23677;BME280;31493;49.058;12.190;2023-11-19T11:19:38;95857.63;;;7.48;100.00
23677;BME280;31493;49.058;12.190;2023-11-19T11:22:05;95859.03;;;7.66;100.00
23677;BME280;31493;49.058;12.190;2023-11-19T11:24:59;95857.31;;;7.79;100.00
23677;BME280;31493;49.058;12.190;2023-11-19T11:27:41;95870.06;;;7.95;100.00
23677;BME280;31493;49.058;12.190;2023-11-19T11:30:22;95854.81;;;8.05;100.00
23677;BME280;31493;49.058;12.190;2023-11-19T11:33:03;95865.06;;;7.79;100.00
23677;BME280;31493;49.058;12.190;2023-11-19T11:35:44;95858.47;;;7.88;100.00
23677;BME280;31493;49.058;12.190;2023-11-19T11:38:21;95843.25;;;7.71;100.00
23677;BME280;31493;49.058;12.190;2023-11-19T11:41:16;95854.13;;;7.88;100.00
23677;BME280;31493;49.058;12.190;2023-11-19T11:43:45;95858.25;;;8.18;100.00
23677;BME280;31493;49.058;12.190;2023-11-19T11:49:13;95834.53;;;7.86;100.00
23677;BME280;31493;49.058;12.190;2023-11-19T11:52:02;95835.47;;;7.98;100.00
23677;BME280;31493;49.058;12.190;2023-11-19T11:54:30;95843.47;;;8.20;100.00
23677;BME280;31493;49.058;12.190;2023-11-19T11:57:02;95835.41;;;8.25;100.00
23677;BME280;31493;49.058;12.190;2023-11-19T11:59:36;95835.13;;;8.29;100.00
23677;BME280;31493;49.058;12.190;2023-11-19T12:02:04;95828.31;;;8.28;100.00
23677;BME280;31493;49.058;12.190;2023-11-19T12:04:31;95826.25;;;8.46;100.00
23677;BME280;31493;49.058;12.190;2023-11-19T12:07:06;95835.00;;;8.43;100.00
23677;BME280;31493;49.058;12.190;2023-11-19T12:09:36;95818.78;;;8.29;100.00
23677;BME280;31493;49.058;12.190;2023-11-19T12:12:22;95825.44;;;8.46;100.00
23677;BME280;31493;49.058;12.190;2023-11-19T12:15:03;95826.13;;;8.48;100.00
23677;BME280;31493;49.058;12.190;2023-11-19T12:17:42;95827.91;;;8.60;100.00
23677;BME280;31493;49.058;12.190;2023-11-19T12:20:15;95828.72;;;8.60;100.00
23677;BME280;31493;49.058;12.190;2023-11-19T12:22:45;95830.06;;;8.66;100.00
23677;BME280;31493;49.058;12.190;2023-11-19T12:25:14;95827.06;;;8.72;100.00
23677;BME280;31493;49.058;12.190;2023-11-19T12:27:43;95813.00;;;8.89;100.00
23677;BME280;31493;49.058;12.190;2023-11-19T12:30:11;95812.34;;;8.98;100.00
23677;BME280;31493;49.058;12.190;2023-11-19T12:32:39;95801.19;;;8.85;100.00
23677;BME280;31493;49.058;12.190;2023-11-19T12:35:07;95802.94;;;8.84;100.00
23677;BME280;31493;49.058;12.190;2023-11-19T12:37:41;95803.94;;;9.07;100.00
23677;BME280;31493;49.058;12.190;2023-11-19T12:40:14;95800.47;;;9.80;100.00
23677;BME280;31493;49.058;12.190;2023-11-19T12:42:41;95807.09;;;9.60;100.00
23677;BME280;31493;49.058;12.190;2023-11-19T12:45:08;95792.88;;;9.42;100.00
23677;BME280;31493;49.058;12.190;2023-11-19T12:47:38;95794.56;;;9.30;100.00
23677;BME280;31493;49.058;12.190;2023-11-19T12:50:06;95793.00;;;9.40;100.00
23677;BME280;31493;49.058;12.190;2023-11-19T12:52:34;95789.41;;;9.30;100.00
23677;BME280;31493;49.058;12.190;2023-11-19T12:55:01;95796.06;;;9.93;100.00
23677;BME280;31493;49.058;12.190;2023-11-19T12:57:40;95791.66;;;10.18;100.00
23677;BME280;31493;49.058;12.190;2023-11-19T13:00:18;95787.63;;;9.79;100.00
23677;BME280;31493;49.058;12.190;2023-11-19T13:02:48;95801.63;;;9.76;100.00